Humidity-temperature Sensor

Selected Measurement Type: Relative Humidity

 
Relative Humidity [%]     6 entries per hour
Showing data from 12/30/2022 (00:00:00 Z) to 12/23/2022 (00:01:00 Z)
Previous Next [ Day | 3-Days | 7-Days ]
First Last
Prev [ Day | 3-Days | 7-Days ] Next
First Last

Start Time:     :
End Time:     :     
Time (in GMT) :00 :50 :40 :30 :20 :10
Previous Next [ Day | 3-Days | 7-Days ]
First Last
Prev [ Day | 3-Days | 7-Days ] Next
First Last


123 => good data
MM => data is determined as missing
-- => data not received/configured
Back to Top Back to Top
12/30/2022 00:00 to 23:10 99.78 99.22 98.40 97.89 96.68 96.10
12/29/2022 23:00 to 22:10 95.30 94.70 93.92 93.24 93.10 92.98
12/29/2022 22:00 to 21:10 93.10 93.02 92.65 92.42 92.38 92.36
12/29/2022 21:00 to 20:10 92.44 92.48 92.63 92.87 92.90 92.79
12/29/2022 20:00 to 19:10 92.59 91.83 90.82 90.37 90.08 90.41
12/29/2022 19:00 to 18:10 90.72 90.90 90.88 90.98 90.92 90.98
12/29/2022 18:00 to 17:10 91.23 91.89 92.36 92.09 92.11 92.18
12/29/2022 17:00 to 16:10 92.50 92.87 93.08 92.98 92.57 92.07
12/29/2022 16:00 to 15:10 91.87 91.68 91.83 91.93 92.48 92.92
12/29/2022 15:00 to 14:10 93.43 93.39 92.92 92.42 92.38 92.69
12/29/2022 14:00 to 13:10 92.71 92.94 93.22 92.92 93.08 92.92
12/29/2022 13:00 to 12:10 92.48 91.97 91.79 91.74 91.97 92.30
12/29/2022 12:00 to 11:10 92.40 92.79 92.69 92.50 92.65 92.77
12/29/2022 11:00 to 10:10 92.59 91.70 91.66 91.81 92.16 92.57
12/29/2022 10:00 to 9:10 92.75 92.63 92.71 92.57 92.48 92.24
12/29/2022 09:00 to 8:10 91.85 91.81 91.79 91.79 91.70 91.99
12/29/2022 08:00 to 7:10 92.40 92.24 92.32 92.65 92.50 92.30
12/29/2022 07:00 to 6:10 92.28 91.83 91.54 91.25 90.96 90.72
12/29/2022 06:00 to 5:10 90.47 90.94 91.62 92.42 92.48 92.40
12/29/2022 05:00 to 4:10 91.48 89.46 88.58 88.87 89.92 90.96
12/29/2022 04:00 to 3:10 91.50 92.32 91.93 90.27 88.40 88.03
12/29/2022 03:00 to 2:10 87.39 86.83 85.91 85.81 87.08 87.18
12/29/2022 02:00 to 1:10 87.08 86.28 85.54 85.31 84.18 83.79
12/29/2022 01:00 to 0:10 84.41 85.00 84.49 84.39 84.59 85.52
12/29/2022 00:00 to 23:10 86.67 86.26 87.06 88.48 87.68 89.01
12/28/2022 23:00 to 22:10 89.61 89.90 89.75 89.09 88.07 87.06
12/28/2022 22:00 to 21:10 87.10 86.53 86.28 86.22 86.36 86.26
12/28/2022 21:00 to 20:10 86.20 86.48 86.20 86.09 86.40 87.02
12/28/2022 20:00 to 19:10 88.37 90.61 90.82 90.51 89.13 88.74
12/28/2022 19:00 to 18:10 88.74 88.83 89.07 89.65 90.10 90.18
12/28/2022 18:00 to 17:10 90.86 91.81 93.18 92.69 91.03 91.68
12/28/2022 17:00 to 16:10 92.26 92.96 94.17 95.85 97.05 97.05
12/28/2022 16:00 to 15:10 96.61 95.77 94.37 93.82 93.18 93.90
12/28/2022 15:00 to 14:10 95.22 96.04 96.16 96.35 95.98 95.83
12/28/2022 14:00 to 13:10 96.35 96.64 96.90 96.82 96.72 96.68
12/28/2022 13:00 to 12:10 96.76 96.98 97.35 97.60 97.56 97.66
12/28/2022 12:00 to 11:10 98.11 98.11 97.52 98.05 97.77 97.52
12/28/2022 11:00 to 10:10 97.54 97.54 97.13 97.05 96.59 96.12
12/28/2022 10:00 to 9:10 95.22 93.96 92.63 92.77 93.43 94.29
12/28/2022 09:00 to 8:10 95.14 95.34 95.48 96.00 96.22 97.27
12/28/2022 08:00 to 7:10 98.07 98.71 98.98 99.08 99.08 98.98
12/28/2022 07:00 to 6:10 98.98 98.83 99.06 99.35 99.24 98.81
12/28/2022 06:00 to 5:10 98.67 98.59 98.63 99.04 99.49 100.03
12/28/2022 05:00 to 4:10 99.92 99.84 99.80 99.68 99.33 99.00
12/28/2022 04:00 to 3:10 98.36 97.79 97.87 97.66 97.44 97.35
12/28/2022 03:00 to 2:10 97.11 97.07 96.96 97.09 97.83 97.89
12/28/2022 02:00 to 1:10 97.70 97.83 97.38 96.82 96.06 94.74
12/28/2022 01:00 to 0:10 94.83 95.11 94.89 94.60 94.54 94.23
12/28/2022 00:00 to 23:10 94.05 93.82 94.13 94.62 94.99 95.73
12/27/2022 23:00 to 22:10 96.57 97.54 98.67 99.49 100.13 100.68
12/27/2022 22:00 to 21:10 100.91 100.91 100.91 100.91 100.91 100.91
12/27/2022 21:00 to 20:10 100.91 100.91 100.91 100.91 100.91 100.91
12/27/2022 20:00 to 19:10 100.91 100.91 100.91 100.91 100.91 100.91
12/27/2022 19:00 to 18:10 100.91 100.91 100.91 100.91 100.91 100.91
12/27/2022 18:00 to 17:10 100.91 100.91 100.91 100.91 100.91 100.91
12/27/2022 17:00 to 16:10 100.91 100.91 100.91 100.91 100.91 100.91
12/27/2022 16:00 to 15:10 100.91 100.91 100.91 100.91 100.91 100.91
12/27/2022 15:00 to 14:10 100.91 100.91 100.91 100.91 100.91 100.91
12/27/2022 14:00 to 13:10 100.91 100.91 100.91 100.91 100.91 100.91
12/27/2022 13:00 to 12:10 100.91 100.91 100.91 100.64 100.36 100.13
12/27/2022 12:00 to 11:10 99.66 99.86 99.61 99.27 99.12 98.92
12/27/2022 11:00 to 10:10 98.61 98.34 98.14 97.99 97.54 97.44
12/27/2022 10:00 to 9:10 96.90 96.41 96.31 95.85 95.98 96.20
12/27/2022 09:00 to 8:10 96.22 96.10 96.04 96.02 96.24 95.85
12/27/2022 08:00 to 7:10 95.38 95.28 95.53 95.96 95.40 94.89
12/27/2022 07:00 to 6:10 94.25 94.03 94.42 95.05 95.57 95.87
12/27/2022 06:00 to 5:10 96.35 96.45 96.35 96.64 96.94 97.35
12/27/2022 05:00 to 4:10 97.99 98.69 99.22 99.55 99.98 100.25
12/27/2022 04:00 to 3:10 100.46 100.54 100.77 100.89 100.77 100.79
12/27/2022 03:00 to 2:10 100.66 100.62 100.23 100.03 99.94 99.68
12/27/2022 02:00 to 1:10 99.33 99.29 99.33 99.43 99.24 99.04
12/27/2022 01:00 to 0:10 98.83 98.57 98.44 98.36 98.61 99.14
12/27/2022 00:00 to 23:10 99.74 99.92 100.27 100.33 100.27 99.98
12/26/2022 23:00 to 22:10 99.53 99.12 98.63 97.54 97.11 97.21
12/26/2022 22:00 to 21:10 97.48 97.60 97.52 97.17 96.53 95.98
12/26/2022 21:00 to 20:10 95.79 94.83 93.35 92.16 91.66 91.95
12/26/2022 20:00 to 19:10 92.16 92.11 92.24 92.34 92.36 92.42
12/26/2022 19:00 to 18:10 92.26 92.38 92.57 92.50 92.59 93.06
12/26/2022 18:00 to 17:10 93.27 93.61 93.59 93.45 93.04 92.40
12/26/2022 17:00 to 16:10 91.87 92.40 92.34 92.28 92.71 93.12
12/26/2022 16:00 to 15:10 93.76 94.31 94.99 95.92 96.61 96.80
12/26/2022 15:00 to 14:10 96.51 95.51 95.22 95.22 95.22 95.14
12/26/2022 14:00 to 13:10 94.97 95.07 95.53 95.96 96.43 96.98
12/26/2022 13:00 to 12:10 97.19 97.11 96.84 96.49 96.06 96.00
12/26/2022 12:00 to 11:10 95.51 94.93 94.44 94.37 94.31 94.42
12/26/2022 11:00 to 10:10 94.44 94.66 94.83 95.20 95.77 96.47
12/26/2022 10:00 to 9:10 96.80 96.92 96.92 97.11 97.23 97.60
12/26/2022 09:00 to 8:10 97.58 97.74 97.72 97.42 97.66 97.81
12/26/2022 08:00 to 7:10 98.03 98.16 98.44 98.57 98.55 98.38
12/26/2022 07:00 to 6:10 98.05 97.58 96.96 96.10 95.18 93.78
12/26/2022 06:00 to 5:10 93.24 93.31 93.53 93.92 94.52 94.79
12/26/2022 05:00 to 4:10 95.61 96.24 96.61 97.21 97.60 97.15
12/26/2022 04:00 to 3:10 96.70 96.12 96.45 96.41 96.20 96.02
12/26/2022 03:00 to 2:10 96.22 96.20 96.02 95.71 95.26 94.40
12/26/2022 02:00 to 1:10 93.47 92.48 91.64 91.56 91.42 91.48
12/26/2022 01:00 to 0:10 91.15 91.05 90.82 90.72 90.86 90.94
12/26/2022 00:00 to 23:10 91.62 92.05 92.22 92.61 92.92 93.39
12/25/2022 23:00 to 22:10 93.90 94.33 94.99 95.61 95.83 96.16
12/25/2022 22:00 to 21:10 96.31 96.51 96.64 96.88 97.07 97.01
12/25/2022 21:00 to 20:10 97.09 97.15 97.29 97.44 97.48 97.21
12/25/2022 20:00 to 19:10 97.31 97.21 97.21 96.92 97.05 96.92
12/25/2022 19:00 to 18:10 97.01 96.80 97.21 97.38 97.56 97.79
12/25/2022 18:00 to 17:10 97.64 97.68 97.48 97.31 96.94 96.82
12/25/2022 17:00 to 16:10 96.61 96.57 96.74 97.21 97.46 97.74
12/25/2022 16:00 to 15:10 97.64 97.99 98.14 98.73 98.67 99.00
12/25/2022 15:00 to 14:10 99.31 99.70 99.90 100.21 100.56 100.75
12/25/2022 14:00 to 13:10 100.91 100.91 100.91 100.91 100.91 100.91
12/25/2022 13:00 to 12:10 100.91 100.91 100.91 100.91 100.91 100.91
12/25/2022 12:00 to 11:10 100.91 100.91 100.91 100.91 100.91 100.91
12/25/2022 11:00 to 10:10 100.91 100.91 100.91 100.91 100.91 100.91
12/25/2022 10:00 to 9:10 100.91 100.91 100.91 100.91 100.91 100.91
12/25/2022 09:00 to 8:10 100.91 100.91 100.89 100.87 100.91 100.87
12/25/2022 08:00 to 7:10 100.91 100.83 100.72 100.79 100.62 100.19
12/25/2022 07:00 to 6:10 99.96 99.61 99.41 99.29 98.55 96.98
12/25/2022 06:00 to 5:10 94.48 94.89 94.37 94.00 93.84 93.70
12/25/2022 05:00 to 4:10 93.82 93.92 94.21 94.42 94.62 95.09
12/25/2022 04:00 to 3:10 95.14 95.26 95.40 95.59 95.59 95.73
12/25/2022 03:00 to 2:10 95.81 95.94 95.90 95.92 96.08 96.31
12/25/2022 02:00 to 1:10 96.57 96.66 96.74 96.84 96.90 97.09
12/25/2022 01:00 to 0:10 97.17 97.35 97.19 97.27 97.31 97.52
12/25/2022 00:00 to 23:10 97.48 97.64 97.66 97.70 97.93 98.07
12/24/2022 23:00 to 22:10 98.24 98.51 98.46 98.77 98.83 99.02
12/24/2022 22:00 to 21:10 99.06 99.16 99.24 99.02 98.90 98.61
12/24/2022 21:00 to 20:10 98.65 98.55 98.55 98.53 98.40 98.36
12/24/2022 20:00 to 19:10 98.16 97.87 97.60 96.94 96.94 96.72
12/24/2022 19:00 to 18:10 96.47 96.39 96.35 96.49 96.51 96.72
12/24/2022 18:00 to 17:10 96.90 97.11 97.46 97.38 97.58 97.35
12/24/2022 17:00 to 16:10 97.33 97.07 96.82 96.84 96.72 96.90
12/24/2022 16:00 to 15:10 96.57 96.82 97.03 96.92 96.64 96.51
12/24/2022 15:00 to 14:10 96.64 96.47 96.33 96.12 95.98 96.02
12/24/2022 14:00 to 13:10 96.10 95.94 95.92 96.00 95.94 95.81
12/24/2022 13:00 to 12:10 95.77 96.00 96.47 97.11 97.74 98.36
12/24/2022 12:00 to 11:10 98.90 99.24 100.01 100.29 100.66 100.91
12/24/2022 11:00 to 10:10 100.91 100.91 100.91 100.91 100.91 100.91
12/24/2022 10:00 to 9:10 100.91 100.91 100.91 100.91 100.91 100.91
12/24/2022 09:00 to 8:10 100.91 100.91 100.91 100.91 100.91 100.91
12/24/2022 08:00 to 7:10 100.91 100.93 100.91 100.91 100.93 100.85
12/24/2022 07:00 to 6:10 100.66 100.54 100.46 100.17 99.98 99.72
12/24/2022 06:00 to 5:10 99.41 99.41 98.94 98.69 97.93 97.07
12/24/2022 05:00 to 4:10 96.68 97.35 97.25 97.25 97.13 96.84
12/24/2022 04:00 to 3:10 96.76 96.35 96.18 96.43 96.92 97.01
12/24/2022 03:00 to 2:10 97.15 97.03 97.27 97.33 97.42 97.83
12/24/2022 02:00 to 1:10 97.68 97.79 98.18 98.63 98.88 99.16
12/24/2022 01:00 to 0:10 99.47 99.74 99.96 100.05 100.38 100.77
12/24/2022 00:00 to 23:10 100.60 100.72 100.56 100.81 100.56 100.48
12/23/2022 23:00 to 22:10 100.42 100.21 100.19 99.94 100.01 100.15
12/23/2022 22:00 to 21:10 100.25 100.27 100.23 100.54 100.56 100.56
12/23/2022 21:00 to 20:10 100.72 100.68 100.72 100.54 100.56 100.50
12/23/2022 20:00 to 19:10 100.66 100.58 100.58 100.68 100.64 100.64
12/23/2022 19:00 to 18:10 100.68 100.85 100.70 100.66 100.70 100.72
12/23/2022 18:00 to 17:10 100.66 100.62 100.44 100.25 99.64 99.41
12/23/2022 17:00 to 16:10 99.51 99.51 99.61 99.70 99.64 99.20
12/23/2022 16:00 to 15:10 99.10 99.00 98.71 98.59 98.32 98.14
12/23/2022 15:00 to 14:10 98.14 97.91 97.62 97.42 96.76 96.45
12/23/2022 14:00 to 13:10 96.04 95.71 95.28 94.83 94.79 94.56
12/23/2022 13:00 to 12:10 94.13 93.55 93.45 93.24 93.08 92.69
12/23/2022 12:00 to 11:10 92.87 93.06 92.79 92.75 92.85 92.96
12/23/2022 11:00 to 10:10 92.87 93.00 93.04 93.20 93.41 93.43
12/23/2022 10:00 to 9:10 93.94 94.15 94.52 94.52 94.40 94.87
12/23/2022 09:00 to 8:10 95.01 95.63 96.08 96.49 97.01 97.29
12/23/2022 08:00 to 7:10 97.62 98.01 98.09 98.28 98.57 98.71
12/23/2022 07:00 to 6:10 99.00 99.06 99.24 99.27 99.68 99.90
12/23/2022 06:00 to 5:10 100.21 100.42 100.48 100.25 100.40 100.25
12/23/2022 05:00 to 4:10 100.21 100.70 100.87 100.89 100.91 100.91
12/23/2022 04:00 to 3:10 100.91 100.91 100.91 100.91 100.91 100.91
12/23/2022 03:00 to 2:10 100.91 100.91 100.91 100.91 100.91 100.91
12/23/2022 02:00 to 1:10 100.91 100.91 100.91 100.91 100.91 100.91
12/23/2022 01:00 to 0:10 100.91 100.91 100.91 100.91 100.91 100.91